Time;durP1;ratioP1;P1;durP2;ratioP2;P2;SDS_P1;SDS_P2;PMS_P1;PMS_P2;Temp;Humidity;BMP_temperature;BMP_pressure;BME280_temperature;BME280_humidity;BME280_pressure;Samples;Min_cycle;Max_cycle;Signal;HPM_P1;HPM_P2
2023/10/05 00:03:47;;;;;;;22.80;12.10;;;;;;;-141.97;57.11;47486.41;5097181;28;20167;-88
2023/10/05 00:06:14;;;;;;;22.67;12.20;;;;;;;-141.97;58.10;47674.78;5092655;28;20156;-86
2023/10/05 00:08:49;;;;;;;19.47;11.57;;;;;;;-141.97;58.72;47457.56;5090764;28;20270;-85
2023/10/05 00:11:35;;;;;;;23.90;12.67;;;;;;;-141.97;58.36;47367.25;5090942;28;20220;-85
2023/10/05 00:14:09;;;;;;;22.97;11.90;;;;;;;-141.97;58.40;47524.84;5079986;28;20261;-86
2023/10/05 00:16:38;;;;;;;24.37;11.77;;;;;;;-141.97;58.24;47624.78;5075954;28;20172;-85
2023/10/05 00:19:08;;;;;;;23.97;11.97;;;;;;;-141.97;57.75;47590.19;5073775;28;20171;-87
2023/10/05 00:21:35;;;;;;;21.73;11.63;;;;;;;-141.97;57.91;47330.72;5106595;28;20192;-87
2023/10/05 00:24:06;;;;;;;24.23;12.30;;;;;;;-141.97;58.28;47413.38;5093858;28;20254;-85
2023/10/05 00:26:33;;;;;;;22.53;11.83;;;;;;;-141.97;58.49;47349.94;5112023;28;20564;-87
2023/10/05 00:29:07;;;;;;;25.47;12.33;;;;;;;-141.97;58.74;47451.81;5094219;28;20175;-85
2023/10/05 00:31:38;;;;;;;22.43;12.23;;;;;;;-141.97;58.85;47438.34;5094084;28;20174;-86
2023/10/05 00:34:08;;;;;;;24.30;12.53;;;;;;;-141.97;58.74;47284.59;5112051;28;20588;-85
2023/10/05 00:36:39;;;;;;;20.13;11.63;;;;;;;-141.97;58.57;47453.72;5111951;28;20315;-86
2023/10/05 00:39:07;;;;;;;22.53;12.00;;;;;;;-141.97;58.65;47663.22;5094366;28;20171;-86
2023/10/05 00:41:33;;;;;;;23.83;12.10;;;;;;;-141.97;58.38;47517.16;5124351;28;20270;-85
2023/10/05 00:44:00;;;;;;;21.80;11.80;;;;;;;-141.97;58.44;47376.84;5135503;28;20155;-86
2023/10/05 00:46:25;;;;;;;22.97;12.50;;;;;;;-141.97;59.74;47561.38;5111181;28;20176;-87
2023/10/05 00:49:03;;;;;;;27.07;12.83;;;;;;;-141.97;60.11;47403.75;5079355;28;20174;-88
2023/10/05 00:51:31;;;;;;;23.03;11.87;;;;;;;-141.97;59.14;47430.66;5118062;28;20251;-86
2023/10/05 00:54:10;;;;;;;22.03;11.67;;;;;;;-141.97;58.93;47580.59;5094687;28;20170;-86
2023/10/05 00:56:41;;;;;;;25.20;12.40;;;;;;;-141.97;59.40;47453.72;5087729;28;20190;-87
2023/10/05 00:59:11;;;;;;;23.60;12.37;;;;;;;-141.97;59.60;47507.53;5106545;28;20167;-86
2023/10/05 01:04:27;;;;;;;23.53;12.43;;;;;;;-141.97;59.63;47407.59;5029865;28;20189;-86
2023/10/05 01:06:57;;;;;;;25.63;12.17;;;;;;;-141.97;59.98;47576.75;5029646;28;20220;-87
2023/10/05 01:11:54;;;;;;;26.27;12.47;;;;;;;-141.97;60.19;47449.88;5051194;28;20181;-84
2023/10/05 01:14:23;;;;;;;23.07;12.30;;;;;;;-141.97;59.54;47417.22;5039955;28;20236;-85
2023/10/05 01:16:49;;;;;;;19.67;11.27;;;;;;;-141.97;59.23;47357.63;5009088;28;20312;-85
2023/10/05 01:19:14;;;;;;;22.07;12.30;;;;;;;-141.97;59.56;47546.00;5009385;28;20591;-86
2023/10/05 01:21:43;;;;;;;22.57;12.33;;;;;;;-141.97;59.67;47373.00;5022710;28;20186;-83
2023/10/05 01:24:10;;;;;;;21.83;11.70;;;;;;;-141.97;59.61;47628.63;5028769;28;20154;-83
2023/10/05 01:26:40;;;;;;;20.33;11.33;;;;;;;-141.97;59.97;47624.78;5029038;28;20216;-83
2023/10/05 01:29:11;;;;;;;22.20;12.23;;;;;;;-141.97;59.91;47542.16;5028913;28;20182;-83
2023/10/05 01:31:39;;;;;;;22.43;12.67;;;;;;;-141.97;59.52;47492.16;5028323;28;20194;-83
2023/10/05 01:34:08;;;;;;;21.87;12.97;;;;;;;-141.97;59.02;47507.53;5028305;28;20261;-82
2023/10/05 01:36:34;;;;;;;22.57;12.80;;;;;;;-141.97;58.29;47484.47;5029034;28;20545;-82
2023/10/05 01:39:07;;;;;;;27.07;13.37;;;;;;;-141.97;58.17;47474.88;5027976;28;20170;-84
2023/10/05 01:41:33;;;;;;;28.03;14.23;;;;;;;-141.97;58.07;47442.19;5050785;28;20218;-83
2023/10/05 01:44:00;;;;;;;34.80;20.03;;;;;;;-141.97;57.92;47615.19;5052895;28;20183;-82
2023/10/05 01:46:40;;;;;;;25.83;14.17;;;;;;;-141.97;57.65;47457.56;5070097;28;20187;-82
2023/10/05 01:49:06;;;;;;;28.37;14.70;;;;;;;-141.97;57.95;47390.31;5071913;28;20164;-83
2023/10/05 01:51:31;;;;;;;31.93;14.90;;;;;;;-141.97;59.01;47503.69;5085208;28;20208;-83
2023/10/05 01:53:59;;;;;;;25.20;13.87;;;;;;;-141.97;59.46;47342.25;5094421;28;20161;-84
2023/10/05 01:56:24;;;;;;;29.37;15.63;;;;;;;-141.97;59.57;47532.53;5094514;28;20157;-85
2023/10/05 01:58:54;;;;;;;36.20;14.13;;;;;;;-141.97;59.86;47409.53;5094571;28;20221;-85
2023/10/05 02:01:21;;;;;;;27.10;14.63;;;;;;;-141.97;59.68;47392.22;5093893;28;20576;-87
2023/10/05 02:03:52;;;;;;;26.77;14.03;;;;;;;-141.97;59.31;47690.16;5094286;28;20246;-85
2023/10/05 02:06:18;;;;;;;25.90;14.20;;;;;;;-141.97;59.36;47384.53;5095312;28;20178;-87
2023/10/05 02:08:43;;;;;;;33.97;19.30;;;;;;;-141.97;58.79;47463.34;5096614;28;20168;-83
2023/10/05 02:11:09;;;;;;;31.27;15.47;;;;;;;-141.97;59.06;47557.53;5095917;28;20199;-83
2023/10/05 02:13:35;;;;;;;29.97;14.77;;;;;;;-141.97;58.93;47421.06;5085127;28;20205;-85
2023/10/05 02:16:02;;;;;;;35.00;14.47;;;;;;;-141.97;59.08;47392.22;5094850;28;20433;-84
2023/10/05 02:18:31;;;;;;;26.60;13.33;;;;;;;-141.97;59.42;47419.13;5093970;28;20286;-84
2023/10/05 02:21:01;;;;;;;30.83;13.60;;;;;;;-141.97;59.72;47522.91;5099253;28;20183;-84
2023/10/05 02:23:29;;;;;;;24.77;13.00;;;;;;;-141.97;60.87;47269.22;5096137;28;20253;-84
2023/10/05 02:26:10;;;;;;;31.97;14.07;;;;;;;-141.97;60.48;47422.97;5095778;28;20386;-84
2023/10/05 02:28:41;;;;;;;23.77;13.60;;;;;;;-141.97;60.58;47438.34;5114023;28;20167;-83
2023/10/05 02:31:12;;;;;;;34.20;13.77;;;;;;;-141.97;60.55;47392.22;5113435;28;20210;-83
2023/10/05 02:33:40;;;;;;;33.00;13.57;;;;;;;-141.97;60.98;47603.66;5095727;28;20212;-83
2023/10/05 02:36:13;;;;;;;35.93;14.30;;;;;;;-141.97;61.21;47422.97;5113553;28;20214;-84
2023/10/05 02:38:47;;;;;;;32.57;14.33;;;;;;;-141.97;61.18;47467.19;5095744;28;20166;-85
2023/10/05 02:41:13;;;;;;;33.10;16.10;;;;;;;-141.97;60.68;47659.38;5095056;28;20186;-84
2023/10/05 02:43:39;;;;;;;35.20;17.07;;;;;;;-141.97;60.53;47480.63;5114224;28;20234;-84
2023/10/05 02:46:10;;;;;;;40.53;17.77;;;;;;;-141.97;59.95;47434.50;5113290;28;20577;-84
2023/10/05 02:48:36;;;;;;;34.47;14.43;;;;;;;-141.97;60.01;47590.19;5113565;28;20233;-84
2023/10/05 02:51:06;;;;;;;38.10;15.37;;;;;;;-141.97;60.32;47499.84;5113599;28;20179;-86
2023/10/05 02:56:29;;;;;;;38.60;15.23;;;;;;;-141.97;59.86;47522.91;5030644;28;20187;-85
2023/10/05 02:59:01;;;;;;;37.53;16.20;;;;;;;-141.97;60.00;47505.63;5030494;28;20575;-83
2023/10/05 03:01:26;;;;;;;38.37;17.27;;;;;;;-141.97;60.01;47515.22;5030015;28;20189;-83
2023/10/05 03:03:52;;;;;;;32.97;15.30;;;;;;;-141.97;59.74;47651.69;5032745;28;20172;-84
2023/10/05 03:06:18;;;;;;;29.33;14.57;;;;;;;-141.97;59.85;47474.88;5044834;28;20170;-82
2023/10/05 03:08:52;;;;;;;39.90;15.00;;;;;;;-141.97;60.09;47542.16;5040680;28;20170;-84
2023/10/05 03:11:18;;;;;;;31.23;15.53;;;;;;;-141.97;60.57;47688.22;5035247;28;20189;-84
2023/10/05 03:13:45;;;;;;;29.97;14.73;;;;;;;-141.97;60.49;47603.66;5022936;28;20309;-84
2023/10/05 03:16:10;;;;;;;32.07;14.97;;;;;;;-141.97;61.45;47484.47;5002851;28;20174;-84
2023/10/05 03:18:40;;;;;;;34.13;14.87;;;;;;;-141.97;62.21;47434.50;5012032;28;20175;-85
2023/10/05 03:21:14;;;;;;;33.10;14.83;;;;;;;-141.97;62.70;47522.91;5001192;28;20204;-84
2023/10/05 03:23:42;;;;;;;31.43;15.07;;;;;;;-141.97;62.00;47521.00;5019682;28;20224;-84
2023/10/05 03:26:10;;;;;;;29.70;14.43;;;;;;;-141.97;61.86;47449.88;5054108;28;20190;-83
2023/10/05 03:28:35;;;;;;;26.90;14.27;;;;;;;-141.97;61.30;47459.50;5049898;28;20642;-84
2023/10/05 03:31:07;;;;;;;29.60;14.47;;;;;;;-141.97;61.14;47426.81;5028340;28;20186;-85
2023/10/05 03:33:34;;;;;;;26.90;13.63;;;;;;;-141.97;61.10;47536.38;5083996;28;20290;-84
2023/10/05 03:36:06;;;;;;;26.13;13.80;;;;;;;-141.97;61.14;47559.44;5117544;28;20211;-86
2023/10/05 03:38:32;;;;;;;27.03;13.77;;;;;;;-141.97;61.29;47446.03;5098933;28;20178;-83
2023/10/05 03:41:04;;;;;;;23.53;13.43;;;;;;;-141.97;61.82;47626.72;5098079;28;20171;-84
2023/10/05 03:43:31;;;;;;;26.10;13.53;;;;;;;-141.97;61.76;47482.56;5112424;28;20156;-84
2023/10/05 03:45:57;;;;;;;29.20;13.53;;;;;;;-141.97;62.55;47515.22;5112560;28;20155;-83
2023/10/05 03:48:22;;;;;;;26.53;14.27;;;;;;;-141.97;62.74;47390.31;5094693;28;20183;-84
2023/10/05 03:50:48;;;;;;;27.93;13.57;;;;;;;-141.97;63.10;47415.28;5112525;28;20191;-84
2023/10/05 03:53:15;;;;;;;27.70;13.37;;;;;;;-141.97;63.24;47430.66;5112552;28;20203;-84
2023/10/05 03:55:41;;;;;;;26.23;13.20;;;;;;;-141.97;62.93;47522.91;5094388;28;20164;-84
2023/10/05 03:58:07;;;;;;;28.17;14.93;;;;;;;-141.97;63.00;47494.09;5112317;28;20492;-83
2023/10/05 04:00:35;;;;;;;39.00;16.33;;;;;;;-141.97;63.04;47488.31;5112207;28;20560;-83
2023/10/05 04:03:02;;;;;;;36.07;17.83;;;;;;;-141.97;63.41;47522.91;5093519;28;20183;-84
2023/10/05 04:05:27;;;;;;;32.30;14.40;;;;;;;-141.97;63.59;47540.22;5112567;28;20152;-83
2023/10/05 04:07:55;;;;;;;28.77;14.63;;;;;;;-141.97;63.49;47507.53;5112190;28;20165;-83
2023/10/05 04:10:23;;;;;;;33.30;14.83;;;;;;;-141.97;63.66;47507.53;5112249;28;20183;-83
2023/10/05 04:12:49;;;;;;;28.63;13.97;;;;;;;-141.97;63.57;47521.00;5111450;28;20213;-82
2023/10/05 04:15:18;;;;;;;26.87;13.60;;;;;;;-141.97;63.40;47553.69;5076104;28;20260;-83
2023/10/05 04:17:49;;;;;;;26.90;13.37;;;;;;;-141.97;63.89;47570.97;5092119;28;20240;-84
2023/10/05 04:20:19;;;;;;;25.63;13.00;;;;;;;-141.97;64.63;47530.59;5079423;28;20208;-84
2023/10/05 04:22:47;;;;;;;32.07;14.00;;;;;;;-141.97;65.13;47490.25;5111338;28;20168;-84
2023/10/05 04:25:16;;;;;;;26.13;13.23;;;;;;;-141.97;64.72;47517.16;5113568;28;20228;-83
2023/10/05 04:27:42;;;;;;;26.53;13.27;;;;;;;-141.97;64.93;47630.56;5114723;28;20151;-83
2023/10/05 04:30:09;;;;;;;30.57;13.30;;;;;;;-141.97;64.53;47474.88;5093266;28;20278;-82
2023/10/05 04:32:35;;;;;;;30.70;13.97;;;;;;;-141.97;64.10;47403.75;5111638;28;20203;-81
2023/10/05 04:35:08;;;;;;;27.10;13.23;;;;;;;-141.97;63.67;47595.97;5111555;28;20226;-83
2023/10/05 04:37:34;;;;;;;27.10;13.13;;;;;;;-141.97;63.39;47549.84;5111676;28;20171;-84
2023/10/05 04:39:59;;;;;;;26.53;12.40;;;;;;;-141.97;63.46;47507.53;5111391;28;20179;-84
2023/10/05 04:42:25;;;;;;;23.30;12.37;;;;;;;-141.97;63.50;47519.06;5111126;28;20159;-84
2023/10/05 04:44:52;;;;;;;26.90;13.43;;;;;;;-141.97;64.20;47497.94;5111378;28;20569;-84
2023/10/05 04:47:17;;;;;;;23.80;13.50;;;;;;;-141.97;64.43;47638.25;5112221;28;20151;-84
2023/10/05 04:49:44;;;;;;;28.17;13.43;;;;;;;-141.97;64.27;47373.00;5111604;28;20232;-84
2023/10/05 04:52:19;;;;;;;28.07;12.97;;;;;;;-141.97;64.28;47446.03;5092662;28;20224;-82
2023/10/05 04:54:45;;;;;;;30.20;14.40;;;;;;;-141.97;64.08;47415.28;5111602;28;20170;-84
2023/10/05 04:57:22;;;;;;;28.23;13.43;;;;;;;-141.97;63.90;47607.50;5110624;28;20655;-84
2023/10/05 04:59:48;;;;;;;30.00;13.80;;;;;;;-141.97;63.88;47484.47;5111319;28;20172;-85
2023/10/05 05:02:35;;;;;;;29.13;13.67;;;;;;;-141.97;63.36;47421.06;5095207;28;20162;-84
2023/10/05 05:07:45;;;;;;;23.83;12.90;;;;;;;-141.97;63.17;47511.38;5111899;28;20190;-85
2023/10/05 05:10:11;;;;;;;22.63;12.43;;;;;;;-141.97;62.74;47563.28;5116034;28;20300;-84
2023/10/05 05:12:38;;;;;;;30.83;13.20;;;;;;;-141.97;62.95;47534.44;5112300;28;20208;-85
2023/10/05 05:15:05;;;;;;;25.77;13.10;;;;;;;-141.97;62.81;47476.78;5094676;28;20239;-84
2023/10/05 05:17:32;;;;;;;27.17;13.37;;;;;;;-141.97;63.21;47519.06;5090980;28;20693;-84
2023/10/05 05:19:58;;;;;;;33.60;13.33;;;;;;;-141.97;65.09;47538.28;5070883;28;20175;-83
2023/10/05 05:22:24;;;;;;;34.03;13.93;;;;;;;-141.97;65.05;47507.53;5070553;28;20563;-83
2023/10/05 05:24:50;;;;;;;24.37;12.10;;;;;;;-141.97;64.99;47544.06;5058282;28;20717;-84
2023/10/05 05:29:53;;;;;;;22.87;11.13;;;;;;;-141.97;65.36;47522.91;5107083;28;20203;-83
2023/10/05 05:32:19;;;;;;;30.10;12.33;;;;;;;-141.97;65.34;47534.44;5097336;28;20159;-83
2023/10/05 05:34:45;;;;;;;24.90;12.43;;;;;;;-141.97;64.35;47515.22;5077508;28;20231;-85
2023/10/05 05:37:30;;;;;;;25.27;12.83;;;;;;;-141.97;63.55;47511.38;5094883;28;20160;-84
2023/10/05 05:40:19;;;;;;;30.37;13.10;;;;;;;-141.97;63.11;47519.06;5094634;28;20556;-83
2023/10/05 05:42:46;;;;;;;25.70;12.97;;;;;;;-141.97;62.52;47496.00;5094663;28;20247;-83
2023/10/05 05:45:20;;;;;;;29.67;13.47;;;;;;;-141.97;61.25;47546.00;5095287;28;20581;-85
2023/10/05 05:47:46;;;;;;;49.60;25.47;;;;;;;-141.97;60.86;47561.38;5094406;28;20222;-84
2023/10/05 05:50:18;;;;;;;82.17;39.23;;;;;;;-141.97;60.20;47622.88;5094670;28;20187;-84
2023/10/05 05:52:47;;;;;;;42.87;15.90;;;;;;;-141.97;59.44;47530.59;5094756;28;20152;-83
2023/10/05 05:55:25;;;;;;;38.47;15.47;;;;;;;-141.97;59.13;47544.06;5096147;28;20179;-83
2023/10/05 05:57:51;;;;;;;38.80;16.43;;;;;;;-141.97;59.69;47540.22;5076646;28;20167;-84
2023/10/05 06:00:18;;;;;;;35.20;17.00;;;;;;;-141.97;59.59;47488.31;5080282;28;20203;-84
2023/10/05 06:02:44;;;;;;;39.07;17.37;;;;;;;-141.97;59.27;47488.31;5104240;28;20160;-84
2023/10/05 06:05:11;;;;;;;37.07;16.83;;;;;;;-141.97;59.04;47615.19;5097572;28;20168;-85
2023/10/05 06:07:38;;;;;;;44.10;19.97;;;;;;;-141.97;58.91;47438.34;5094061;28;20176;-83
2023/10/05 06:10:12;;;;;;;41.30;19.23;;;;;;;-141.97;58.49;47536.38;5075907;28;20191;-84
2023/10/05 06:12:41;;;;;;;42.70;22.13;;;;;;;-141.97;58.22;47461.41;5076557;28;20167;-82
2023/10/05 06:15:09;;;;;;;40.93;22.60;;;;;;;-141.97;57.83;47486.41;5084281;28;20698;-82
2023/10/05 06:17:35;;;;;;;36.40;19.50;;;;;;;-141.97;57.83;47457.56;5094543;28;20247;-88
2023/10/05 06:20:13;;;;;;;38.27;17.13;;;;;;;-141.97;57.12;47499.84;5075731;28;20178;-84
2023/10/05 06:22:41;;;;;;;38.90;18.63;;;;;;;-141.97;56.96;47709.38;5076053;28;20250;-85
2023/10/05 06:25:08;;;;;;;34.13;16.23;;;;;;;-141.97;57.01;47553.69;5109046;28;20167;-85
2023/10/05 06:27:33;;;;;;;30.40;15.87;;;;;;;-141.97;56.91;47492.16;5114445;28;20239;-86
2023/10/05 06:29:59;;;;;;;41.23;15.23;;;;;;;-141.97;56.58;47536.38;5118079;28;20214;-84
2023/10/05 06:32:24;;;;;;;39.67;21.60;;;;;;;-141.97;57.28;47682.47;5125572;28;20647;-85
2023/10/05 06:34:50;;;;;;;71.73;41.63;;;;;;;-141.97;57.39;47551.75;5125390;28;20223;-85
2023/10/05 06:37:15;;;;;;;94.00;55.03;;;;;;;-141.97;57.32;47394.16;5123007;28;20186;-86
2023/10/05 06:39:41;;;;;;;112.70;64.30;;;;;;;-141.97;56.52;47505.63;5118415;28;20289;-85
2023/10/05 06:42:06;;;;;;;89.07;51.33;;;;;;;-141.97;56.10;47657.47;5113815;28;20213;-86
2023/10/05 06:44:33;;;;;;;55.17;29.27;;;;;;;-141.97;56.03;47509.47;5113894;28;20228;-86
2023/10/05 06:46:59;;;;;;;34.27;18.17;;;;;;;-141.97;56.08;47447.97;5097165;28;20194;-85
2023/10/05 06:49:25;;;;;;;36.57;15.97;;;;;;;-141.97;55.84;47519.06;5095527;28;20220;-84
2023/10/05 06:51:50;;;;;;;31.87;13.70;;;;;;;-141.97;55.27;47519.06;5095617;28;20159;-85
2023/10/05 06:54:17;;;;;;;31.37;12.93;;;;;;;-141.97;54.45;47540.22;5113250;28;20653;-84
2023/10/05 06:56:48;;;;;;;30.13;12.63;;;;;;;-141.97;54.02;47386.47;5112815;28;20667;-85
2023/10/05 06:59:14;;;;;;;27.57;12.83;;;;;;;-141.97;52.78;47536.38;5095184;28;20258;-84
2023/10/05 07:01:39;;;;;;;26.53;13.10;;;;;;;-141.97;50.30;47649.78;5114193;28;20183;-85
2023/10/05 07:04:08;;;;;;;23.43;12.37;;;;;;;-141.97;49.49;47411.44;5097346;28;20297;-86
2023/10/05 07:06:33;;;;;;;24.87;12.23;;;;;;;-141.97;48.62;47342.25;5116074;28;20162;-85
2023/10/05 07:08:59;;;;;;;29.40;13.80;;;;;;;-141.97;48.44;47546.00;5117349;28;20163;-84
2023/10/05 07:11:25;;;;;;;28.63;14.37;;;;;;;-141.97;48.05;47503.69;5105659;28;20191;-86
2023/10/05 07:13:51;;;;;;;30.17;12.60;;;;;;;-141.97;48.88;47530.59;5115758;28;20173;-84
2023/10/05 07:16:17;;;;;;;25.23;12.13;;;;;;;-141.97;49.55;47497.94;5090821;27;20688;-85
2023/10/05 07:18:42;;;;;;;22.60;11.83;;;;;;;-141.97;49.02;47453.72;5104065;28;20243;-85
2023/10/05 07:21:08;;;;;;;20.87;11.23;;;;;;;-141.97;48.50;47361.47;5113138;28;20171;-84
2023/10/05 07:23:39;;;;;;;23.87;11.93;;;;;;;-141.97;48.53;47472.94;5094216;28;20171;-86
2023/10/05 07:26:06;;;;;;;21.77;11.30;;;;;;;-141.97;48.00;47511.38;5115629;28;20175;-85
2023/10/05 07:28:35;;;;;;;31.50;11.70;;;;;;;-141.97;48.00;47309.59;5075269;28;20264;-85
2023/10/05 07:31:03;;;;;;;32.57;11.93;;;;;;;-141.97;47.16;47486.41;5055193;28;20196;-86
2023/10/05 07:33:35;;;;;;;27.57;11.47;;;;;;;-141.97;47.59;47469.09;5081903;28;20164;-84
2023/10/05 07:36:02;;;;;;;24.67;11.40;;;;;;;-141.97;47.79;47442.19;5092638;28;20307;-87
2023/10/05 07:38:28;;;;;;;22.07;10.83;;;;;;;-141.97;47.54;47501.78;5101570;28;20250;-86
2023/10/05 07:40:57;;;;;;;24.40;11.57;;;;;;;-141.97;46.80;47517.16;5116851;28;20244;-85
2023/10/05 07:43:23;;;;;;;24.90;11.10;;;;;;;-141.97;46.33;47486.41;5112349;28;20163;-86
2023/10/05 07:45:52;;;;;;;24.00;11.03;;;;;;;-141.97;47.04;47357.63;5084293;28;20189;-86
2023/10/05 07:48:19;;;;;;;22.63;11.13;;;;;;;-141.97;46.48;47374.94;5105504;28;20167;-85
2023/10/05 07:50:48;;;;;;;18.17;10.50;;;;;;;-141.97;45.67;47342.25;5136974;28;20191;-85
2023/10/05 07:53:14;;;;;;;22.03;11.40;;;;;;;-141.97;46.18;47611.34;5107211;28;20182;-85
2023/10/05 07:55:41;;;;;;;20.53;11.13;;;;;;;-141.97;46.58;47394.16;5114956;28;20608;-85
2023/10/05 07:58:06;;;;;;;18.47;10.53;;;;;;;-141.97;46.62;47434.50;5093789;28;20172;-86
2023/10/05 08:00:33;;;;;;;20.57;11.00;;;;;;;-141.97;46.76;47390.31;5094125;28;20170;-85
2023/10/05 08:03:01;;;;;;;18.60;10.63;;;;;;;-141.97;46.53;47403.75;5093711;28;20183;-85
2023/10/05 08:05:26;;;;;;;17.53;10.07;;;;;;;-141.97;47.10;47588.28;5093488;28;20216;-85
2023/10/05 08:07:54;;;;;;;23.40;11.40;;;;;;;-141.97;46.97;47622.88;5112558;28;20161;-86
2023/10/05 08:10:20;;;;;;;21.00;11.30;;;;;;;-141.97;46.81;47486.41;5093518;28;20670;-85
2023/10/05 08:12:50;;;;;;;21.47;11.20;;;;;;;-141.97;46.38;47459.50;5111327;28;20272;-85
2023/10/05 08:15:18;;;;;;;21.93;11.17;;;;;;;-141.97;46.68;47647.84;5099685;28;20162;-85
2023/10/05 08:17:44;;;;;;;20.67;11.47;;;;;;;-141.97;46.25;47492.16;5111910;28;20623;-85
2023/10/05 08:20:11;;;;;;;21.33;12.20;;;;;;;-141.97;45.06;47553.69;5093042;28;20187;-86
2023/10/05 08:22:37;;;;;;;18.90;10.60;;;;;;;-141.97;44.08;47434.50;5099629;28;20274;-85
2023/10/05 08:25:10;;;;;;;20.00;11.17;;;;;;;-141.97;43.67;47438.34;5091262;28;20240;-85
2023/10/05 08:27:38;;;;;;;18.50;11.40;;;;;;;-141.97;42.22;47428.75;5091327;28;20302;-84
2023/10/05 08:30:05;;;;;;;18.13;10.57;;;;;;;-141.97;42.43;47446.03;5085725;28;20210;-84
2023/10/05 08:32:33;;;;;;;17.70;10.87;;;;;;;-141.97;42.54;47469.09;5089893;28;20601;-86
2023/10/05 08:35:06;;;;;;;18.13;11.23;;;;;;;-141.97;42.42;47476.78;5090309;28;20234;-84
2023/10/05 08:37:33;;;;;;;22.50;10.90;;;;;;;-141.97;40.81;47269.22;5101939;28;20171;-84
2023/10/05 08:39:59;;;;;;;18.73;10.40;;;;;;;-141.97;39.43;47507.53;5114161;28;20189;-85
2023/10/05 08:42:26;;;;;;;18.67;10.03;;;;;;;-141.97;38.75;47471.03;5111975;28;20160;-86
2023/10/05 08:44:53;;;;;;;23.17;10.63;;;;;;;-141.97;38.50;47263.47;5112196;28;20163;-84
2023/10/05 08:47:21;;;;;;;21.93;10.40;;;;;;;-141.97;38.37;47388.38;5100361;28;20159;-84
2023/10/05 08:49:48;;;;;;;18.93;10.53;;;;;;;-141.97;36.67;47496.00;5102088;28;20241;-84
2023/10/05 08:52:19;;;;;;;18.10;10.70;;;;;;;-141.97;36.79;47540.22;5094209;28;20213;-86
2023/10/05 08:54:46;;;;;;;19.80;11.30;;;;;;;-141.97;36.57;47472.94;5091093;28;20553;-86
2023/10/05 08:57:12;;;;;;;15.83;10.27;;;;;;;-141.97;36.32;47603.66;5093441;28;20283;-86
2023/10/05 08:59:39;;;;;;;21.00;10.77;;;;;;;-141.97;36.16;47426.81;5095894;28;20645;-85
2023/10/05 09:02:08;;;;;;;20.50;11.00;;;;;;;-141.97;36.60;47617.09;5094394;28;20550;-88
2023/10/05 09:04:47;;;;;;;18.83;11.43;;;;;;;-141.97;36.16;47365.31;5080011;28;20274;-88
2023/10/05 09:07:35;;;;;;;18.10;11.10;;;;;;;-141.97;34.48;47349.94;5099192;28;20639;-87
2023/10/05 09:10:05;;;;;;;18.33;9.82;;;;;;;-141.97;33.85;47298.06;5097883;28;20185;-87
2023/10/05 09:15:34;;;;;;;16.38;10.20;;;;;;;-141.97;34.17;47384.53;5109779;28;20179;-87
2023/10/05 09:20:38;;;;;;;17.38;10.10;;;;;;;-141.97;34.19;47169.28;5104813;28;20175;-88
2023/10/05 09:23:09;;;;;;;16.60;9.80;;;;;;;-141.97;33.96;47521.00;5078974;28;20166;-88
2023/10/05 09:25:47;;;;;;;19.42;10.18;;;;;;;-141.97;34.17;47257.69;5076868;28;20706;-87
2023/10/05 09:28:28;;;;;;;15.82;10.32;;;;;;;-141.97;33.99;47326.88;5098446;28;20151;-88
2023/10/05 09:30:59;;;;;;;19.27;10.70;;;;;;;-141.97;33.36;47373.00;5100746;28;20168;-87
2023/10/05 09:33:27;;;;;;;25.70;10.35;;;;;;;-141.97;33.19;47150.06;5095820;28;20236;-87
2023/10/05 09:35:56;;;;;;;17.98;9.98;;;;;;;-141.97;33.17;47242.31;5097246;28;20222;-86
2023/10/05 09:38:22;;;;;;;17.48;10.27;;;;;;;-141.97;34.09;47584.44;5100101;28;20541;-86
2023/10/05 09:40:53;;;;;;;19.10;10.73;;;;;;;-141.97;33.35;47607.50;5085734;28;20167;-88
2023/10/05 09:43:22;;;;;;;17.98;10.27;;;;;;;-141.97;32.71;47378.78;5103205;28;20163;-88
2023/10/05 09:45:53;;;;;;;18.50;10.73;;;;;;;-141.97;32.57;47138.53;5097523;28;20190;-86
2023/10/05 09:48:21;;;;;;;17.52;10.55;;;;;;;-141.97;32.13;47407.59;5078565;28;20258;-87
2023/10/05 09:50:47;;;;;;;16.98;10.43;;;;;;;-141.97;32.48;47374.94;5093080;28;20203;-87
2023/10/05 09:53:17;;;;;;;13.57;9.48;;;;;;;-141.97;32.33;47250.00;5096356;28;20239;-86
2023/10/05 09:55:53;;;;;;;15.38;9.90;;;;;;;-141.97;32.08;47276.91;5093537;28;20176;-87
2023/10/05 09:58:20;;;;;;;17.98;9.95;;;;;;;-141.97;31.78;47369.16;5074314;28;20660;-86
2023/10/05 10:03:13;;;;;;;16.13;9.70;;;;;;;-141.97;31.66;47357.63;5083615;28;20336;-87
2023/10/05 10:05:55;;;;;;;16.25;10.15;;;;;;;-141.97;32.13;47349.94;5075867;28;20168;-86
2023/10/05 10:08:29;;;;;;;24.10;10.85;;;;;;;-141.97;32.37;47334.56;5086200;28;20171;-87
2023/10/05 10:11:17;;;;;;;14.35;8.90;;;;;;;-141.97;31.30;47376.84;5099100;28;20215;-87
2023/10/05 10:14:06;;;;;;;12.73;8.02;;;;;;;-141.97;30.62;47332.66;5092491;28;20175;-86
2023/10/05 10:16:39;;;;;;;13.63;8.73;;;;;;;-141.97;30.47;47624.78;5084630;28;20282;-86
2023/10/05 10:19:07;;;;;;;16.33;9.23;;;;;;;-141.97;31.36;47373.00;5076387;28;20196;-86
2023/10/05 10:21:36;;;;;;;17.48;10.07;;;;;;;-141.97;31.06;47342.25;5093730;28;20152;-88
2023/10/05 10:24:08;;;;;;;15.25;9.95;;;;;;;-141.97;31.18;47519.06;5093566;28;20168;-88
2023/10/05 10:26:52;;;;;;;17.15;10.00;;;;;;;-141.97;31.78;47567.13;5076038;28;20665;-85
2023/10/05 10:29:23;;;;;;;14.75;9.48;;;;;;;-141.97;31.96;47584.44;5093821;28;20154;-87
2023/10/05 10:32:34;;;;;;;14.90;9.15;;;;;;;-141.97;31.78;47399.91;5093530;28;20212;-86
2023/10/05 10:35:09;;;;;;;17.50;9.38;;;;;;;-141.97;31.11;47369.16;5103906;28;20215;-86
2023/10/05 10:37:40;;;;;;;12.57;8.57;;;;;;;-141.97;31.80;47626.72;5095970;28;20181;-86
2023/10/05 10:42:47;;;;;;;16.85;8.55;;;;;;;-141.97;31.76;47492.16;5113976;28;20169;-85
2023/10/05 10:45:15;;;;;;;14.07;8.90;;;;;;;-141.97;31.36;47324.97;5113835;28;20254;-87
2023/10/05 10:47:45;;;;;;;12.30;7.75;;;;;;;-141.97;30.94;47309.59;5095297;28;20165;-88
2023/10/05 10:50:22;;;;;;;14.52;8.30;;;;;;;-141.97;30.92;47324.97;5116189;28;20303;-86
2023/10/05 10:52:52;;;;;;;18.65;8.00;;;;;;;-141.97;30.56;47357.63;5111245;28;20169;-87
2023/10/05 10:55:20;;;;;;;14.45;8.10;;;;;;;-141.97;30.77;47386.47;5122350;28;20166;-87
2023/10/05 10:57:53;;;;;;;15.57;8.18;;;;;;;-141.97;31.56;47378.78;5112002;28;20177;-87
2023/10/05 11:03:11;;;;;;;17.95;8.18;;;;;;;-141.97;31.48;47357.63;5109312;28;20183;-87
2023/10/05 11:05:40;;;;;;;18.15;8.00;;;;;;;-141.97;31.76;47357.63;5114756;28;20211;-84
2023/10/05 11:08:15;;;;;;;15.07;8.05;;;;;;;-141.97;31.12;47346.09;5127194;28;20182;-86
2023/10/05 11:10:41;;;;;;;16.50;8.02;;;;;;;-141.97;31.15;47371.09;5098161;28;20202;-86
2023/10/05 11:13:19;;;;;;;14.07;8.10;;;;;;;-141.97;30.94;47211.56;5114916;28;20348;-86
2023/10/05 11:15:58;;;;;;;15.05;8.27;;;;;;;-141.97;31.47;47307.66;5112381;28;20242;-87
2023/10/05 11:18:30;;;;;;;17.52;8.10;;;;;;;-141.97;31.65;47373.00;5103927;28;20668;-85
2023/10/05 11:21:18;;;;;;;12.70;8.32;;;;;;;-141.97;31.53;47388.38;5114375;28;20643;-86
2023/10/05 11:23:48;;;;;;;15.98;7.80;;;;;;;-141.97;31.75;47376.84;5112977;28;20279;-88
2023/10/05 11:26:17;;;;;;;13.23;7.78;;;;;;;-141.97;32.01;47298.06;5102945;28;20572;-86
2023/10/05 11:28:51;;;;;;;17.52;8.15;;;;;;;-141.97;31.55;47321.13;5074808;28;20171;-87
2023/10/05 11:31:24;;;;;;;13.95;8.23;;;;;;;-141.97;30.89;47240.41;5074182;28;20274;-86
2023/10/05 11:34:11;;;;;;;15.50;8.60;;;;;;;-141.97;31.15;47503.69;5074683;28;20170;-85
2023/10/05 11:36:39;;;;;;;18.10;8.70;;;;;;;-141.97;31.63;47346.09;5073950;28;20227;-85
2023/10/05 11:39:20;;;;;;;16.63;8.73;;;;;;;-141.97;31.95;47349.94;5074064;28;20253;-86
2023/10/05 11:41:46;;;;;;;16.02;8.10;;;;;;;-141.97;32.18;47574.81;5062906;28;20260;-86